Time;durP1;ratioP1;P1;durP2;ratioP2;P2;SDS_P1;SDS_P2;PMS_P1;PMS_P2;Temp;Humidity;BMP_temperature;BMP_pressure;BME280_temperature;BME280_humidity;BME280_pressure;Samples;Min_cycle;Max_cycle;Signal;HPM_P1;HPM_P2
2024/03/19 00:00:12;;;;;;;35.38;18.52;;;;;;;7.49;100.00;96418.44;1035062;28;20435;-71
2024/03/19 00:00:44;;;;;;;40.17;19.95;;;;;;;7.49;100.00;96421.03;1035748;28;20041;-72
2024/03/19 00:01:14;;;;;;;36.05;18.55;;;;;;;7.43;100.00;96420.13;1030715;28;20037;-72
2024/03/19 00:01:45;;;;;;;31.85;17.65;;;;;;;7.43;100.00;96420.13;1030564;28;20042;-72
2024/03/19 00:02:15;;;;;;;33.83;19.90;;;;;;;7.47;100.00;96421.25;1023186;28;20031;-71
2024/03/19 00:02:48;;;;;;;32.22;19.48;;;;;;;7.44;100.00;96416.47;1030912;28;20071;-71
2024/03/19 00:03:19;;;;;;;32.35;18.30;;;;;;;7.45;100.00;96423.31;1030384;28;20400;-71
2024/03/19 00:03:49;;;;;;;38.63;19.50;;;;;;;7.38;100.00;96406.13;1026552;28;20026;-71
2024/03/19 00:04:20;;;;;;;35.15;19.08;;;;;;;7.45;100.00;96419.91;1030884;28;20054;-71
2024/03/19 00:04:50;;;;;;;34.47;18.17;;;;;;;7.46;100.00;96413.66;1031674;28;20037;-72
2024/03/19 00:05:21;;;;;;;32.60;19.52;;;;;;;7.49;100.00;96414.00;1026325;28;20078;-71
2024/03/19 00:05:51;;;;;;;37.67;19.58;;;;;;;7.46;100.00;96413.66;1023623;29;20480;-71
2024/03/19 00:06:22;;;;;;;33.35;19.02;;;;;;;7.51;100.00;96421.59;1027490;28;20535;-71
2024/03/19 00:06:52;;;;;;;32.95;18.10;;;;;;;7.52;100.00;96418.78;1024007;28;20023;-71
2024/03/19 00:07:22;;;;;;;35.75;19.10;;;;;;;7.53;100.00;96424.78;1035771;28;20125;-72
2024/03/19 00:07:53;;;;;;;33.78;18.98;;;;;;;7.48;100.00;96417.63;1037484;28;20029;-71
2024/03/19 00:08:23;;;;;;;40.17;19.30;;;;;;;7.47;100.00;96421.25;1030987;28;20971;-71
2024/03/19 00:08:54;;;;;;;36.67;18.55;;;;;;;7.42;100.00;96415.13;1031286;28;20030;-71
2024/03/19 00:09:24;;;;;;;32.95;18.77;;;;;;;7.47;100.00;96423.84;1027540;28;20026;-71
2024/03/19 00:09:55;;;;;;;36.22;19.27;;;;;;;7.45;100.00;96417.28;1019551;28;20035;-71
2024/03/19 00:10:25;;;;;;;35.50;18.92;;;;;;;7.45;100.00;96414.69;1028781;28;20073;-72
2024/03/19 00:10:56;;;;;;;34.55;18.67;;;;;;;7.44;100.00;96421.69;1030062;28;20194;-72
2024/03/19 00:11:26;;;;;;;32.95;18.15;;;;;;;7.43;100.00;96424.53;1030819;28;20124;-71
2024/03/19 00:11:57;;;;;;;33.53;17.70;;;;;;;7.41;100.00;96421.34;1035528;28;20033;-72
2024/03/19 00:12:30;;;;;;;36.83;18.60;;;;;;;7.45;100.00;96418.09;1031803;28;20030;-71
2024/03/19 00:13:00;;;;;;;39.17;19.25;;;;;;;7.42;100.00;96428.97;1031743;28;20419;-71
2024/03/19 00:13:31;;;;;;;31.73;17.17;;;;;;;7.42;100.00;96417.75;1035616;28;20033;-72
2024/03/19 00:14:01;;;;;;;38.42;18.60;;;;;;;7.42;100.00;96420.34;1031994;28;20500;-71
2024/03/19 00:14:32;;;;;;;32.65;18.67;;;;;;;7.38;100.00;96416.56;1027430;28;20015;-71
2024/03/19 00:15:05;;;;;;;35.40;18.27;;;;;;;7.32;100.00;96408.63;1027741;28;20035;-71
2024/03/19 00:15:35;;;;;;;29.25;17.60;;;;;;;7.40;100.00;96425.78;1024970;28;20110;-72
2024/03/19 00:16:06;;;;;;;36.30;18.17;;;;;;;7.44;100.00;96423.53;1029023;28;20038;-72
2024/03/19 00:16:36;;;;;;;39.22;19.05;;;;;;;7.45;100.00;96425.91;1035817;28;20044;-72
2024/03/19 00:17:07;;;;;;;31.98;18.02;;;;;;;7.43;100.00;96427.16;1035312;28;20033;-72
2024/03/19 00:17:37;;;;;;;35.47;18.75;;;;;;;7.43;100.00;96427.16;1031500;28;20034;-72
2024/03/19 00:18:08;;;;;;;31.10;17.90;;;;;;;7.43;100.00;96421.94;1034966;28;20018;-71
2024/03/19 00:18:38;;;;;;;31.52;17.42;;;;;;;7.42;100.00;96422.97;1031489;28;20030;-72
2024/03/19 00:19:08;;;;;;;31.50;17.40;;;;;;;7.43;100.00;96427.16;1031784;28;20026;-71
2024/03/19 00:19:39;;;;;;;34.38;19.00;;;;;;;7.37;100.00;96422.81;1031504;28;20022;-71
2024/03/19 00:20:10;;;;;;;35.17;18.75;;;;;;;7.39;100.00;96424.19;1031494;28;20030;-71
2024/03/19 00:20:40;;;;;;;32.58;18.42;;;;;;;7.42;100.00;96428.97;1031937;28;20077;-72
2024/03/19 00:21:11;;;;;;;35.58;19.08;;;;;;;7.33;100.00;96410.22;1028703;28;20710;-72
2024/03/19 00:21:41;;;;;;;35.33;18.92;;;;;;;7.42;100.00;96421.16;1035780;28;20030;-72
2024/03/19 00:22:12;;;;;;;34.85;18.45;;;;;;;7.42;100.00;96428.97;1035595;28;20041;-71
2024/03/19 00:22:42;;;;;;;31.52;17.08;;;;;;;7.39;100.00;96423.41;1031445;28;20022;-71
2024/03/19 00:23:13;;;;;;;38.22;18.50;;;;;;;7.40;100.00;96425.78;1027553;28;20499;-71
2024/03/19 00:23:43;;;;;;;34.17;18.17;;;;;;;7.43;100.00;96424.53;1031551;28;20035;-71
2024/03/19 00:24:14;;;;;;;32.83;18.33;;;;;;;7.35;100.00;96423.06;1035585;28;20021;-71
2024/03/19 00:24:44;;;;;;;36.85;18.67;;;;;;;7.38;100.00;96422.63;1035735;28;20511;-71
2024/03/19 00:25:15;;;;;;;30.25;17.17;;;;;;;7.40;100.00;96425.00;1035434;28;20033;-72
2024/03/19 00:25:45;;;;;;;32.35;18.52;;;;;;;7.39;100.00;96429.44;1027490;28;20492;-72
2024/03/19 00:26:16;;;;;;;30.45;17.42;;;;;;;7.36;100.00;96421.25;1027730;28;20407;-72
2024/03/19 00:26:46;;;;;;;36.65;18.42;;;;;;;7.41;100.00;96421.34;1031594;28;20034;-72
2024/03/19 00:27:17;;;;;;;35.25;17.67;;;;;;;7.37;100.00;96428.06;1023484;28;20332;-72
2024/03/19 00:27:48;;;;;;;37.42;18.65;;;;;;;7.39;100.00;96421.59;1023514;29;20027;-71
2024/03/19 00:28:19;;;;;;;33.17;18.05;;;;;;;7.38;100.00;96427.03;1018316;29;20028;-71
2024/03/19 00:28:49;;;;;;;35.10;18.02;;;;;;;7.36;100.00;96434.31;1020247;28;20031;-72
2024/03/19 00:29:20;;;;;;;36.72;18.20;;;;;;;7.36;100.00;96418.63;1027460;28;20023;-72
2024/03/19 00:29:51;;;;;;;33.00;17.73;;;;;;;7.40;100.00;96430.22;1023593;28;20640;-71
2024/03/19 00:30:21;;;;;;;37.58;17.58;;;;;;;7.38;100.00;96427.03;1029381;28;20023;-71
2024/03/19 00:30:52;;;;;;;40.95;18.85;;;;;;;7.38;100.00;96427.84;1025346;28;20448;-71
2024/03/19 00:31:23;;;;;;;32.95;18.33;;;;;;;7.35;100.00;96422.28;1023674;28;20572;-70
2024/03/19 00:31:54;;;;;;;34.45;17.98;;;;;;;7.32;100.00;96429.53;1031451;28;20117;-72
2024/03/19 00:32:25;;;;;;;32.92;17.20;;;;;;;7.35;100.00;96430.09;1026312;28;20423;-71
2024/03/19 00:32:55;;;;;;;31.42;17.30;;;;;;;7.26;100.00;96414.75;1031942;28;20029;-71
2024/03/19 00:33:29;;;;;;;30.38;17.38;;;;;;;7.31;100.00;96422.72;1026944;28;20051;-71
2024/03/19 00:33:59;;;;;;;37.03;18.45;;;;;;;7.32;100.00;96426.13;1023577;29;20035;-71
2024/03/19 00:34:30;;;;;;;33.72;18.38;;;;;;;7.32;100.00;96423.50;1027093;28;20373;-71
2024/03/19 00:35:00;;;;;;;35.40;17.27;;;;;;;7.33;100.00;96420.66;1023282;28;20086;-71
2024/03/19 00:35:31;;;;;;;35.83;18.27;;;;;;;7.35;100.00;96427.50;1025713;28;20022;-71
2024/03/19 00:36:06;;;;;;;37.30;18.75;;;;;;;7.32;100.00;96419.09;1027462;28;20029;-72
2024/03/19 00:36:37;;;;;;;35.30;18.13;;;;;;;7.36;100.00;96423.84;1028029;28;20019;-71
2024/03/19 00:37:07;;;;;;;38.08;19.30;;;;;;;7.33;100.00;96419.88;1028233;28;20039;-71
2024/03/19 00:37:39;;;;;;;32.63;18.25;;;;;;;7.31;100.00;96412.28;1027247;28;20027;-71
2024/03/19 00:38:10;;;;;;;33.17;17.80;;;;;;;7.32;100.00;96416.47;1023308;28;20019;-71
2024/03/19 00:38:40;;;;;;;34.22;18.75;;;;;;;7.38;100.00;96421.81;1034904;28;20470;-72
2024/03/19 00:39:11;;;;;;;35.97;18.25;;;;;;;7.35;100.00;96414.44;1031129;28;20022;-71
2024/03/19 00:39:42;;;;;;;36.13;18.13;;;;;;;7.27;100.00;96411.13;1031048;28;20038;-71
2024/03/19 00:40:12;;;;;;;36.30;19.02;;;;;;;7.31;100.00;96414.91;1027849;28;20026;-71
2024/03/19 00:40:43;;;;;;;39.28;19.02;;;;;;;7.35;100.00;96417.06;1027477;28;20066;-71
2024/03/19 00:41:13;;;;;;;37.17;18.52;;;;;;;7.35;100.00;96406.63;1028566;28;20038;-72
2024/03/19 00:41:44;;;;;;;35.72;18.83;;;;;;;7.36;100.00;96403.75;1027342;28;20023;-72
2024/03/19 00:42:14;;;;;;;33.58;18.17;;;;;;;7.35;100.00;96411.84;1027635;28;20027;-71
2024/03/19 00:42:45;;;;;;;33.72;17.85;;;;;;;7.29;100.00;96403.88;1027398;28;20042;-70
2024/03/19 00:43:15;;;;;;;34.92;18.38;;;;;;;7.32;100.00;96408.63;1027325;28;20074;-71
2024/03/19 00:43:45;;;;;;;33.85;18.88;;;;;;;7.29;100.00;96403.88;1027595;28;20077;-71
2024/03/19 00:44:16;;;;;;;33.60;17.90;;;;;;;7.30;100.00;96410.66;1031437;28;20022;-72
2024/03/19 00:44:46;;;;;;;35.97;18.38;;;;;;;7.22;100.00;96399.78;1031489;28;20443;-71
2024/03/19 00:45:17;;;;;;;35.60;17.95;;;;;;;7.22;100.00;96400.56;1027351;28;20424;-72
2024/03/19 00:45:47;;;;;;;35.65;18.20;;;;;;;7.26;100.00;96398.31;1023526;28;20043;-71
2024/03/19 00:46:19;;;;;;;33.72;18.02;;;;;;;7.26;100.00;96406.94;1023432;28;20034;-72
2024/03/19 00:46:49;;;;;;;34.78;18.17;;;;;;;7.25;100.00;96401.94;1023743;28;20504;-71
2024/03/19 00:47:19;;;;;;;37.65;18.38;;;;;;;7.28;100.00;96407.50;1027406;28;20027;-71
2024/03/19 00:47:50;;;;;;;36.85;18.20;;;;;;;7.27;100.00;96405.91;1031502;28;20033;-72
2024/03/19 00:48:20;;;;;;;37.40;19.02;;;;;;;7.28;100.00;96402.28;1030742;28;20029;-71
2024/03/19 00:48:51;;;;;;;32.63;17.85;;;;;;;7.27;100.00;96402.50;1027535;28;20571;-71
2024/03/19 00:49:21;;;;;;;36.25;18.23;;;;;;;7.28;100.00;96401.50;1031501;28;20423;-71
2024/03/19 00:49:52;;;;;;;36.17;18.30;;;;;;;7.24;100.00;96395.09;1031353;28;20393;-72
2024/03/19 00:50:22;;;;;;;32.75;17.35;;;;;;;7.27;100.00;96407.72;1023585;28;20027;-71
2024/03/19 00:50:53;;;;;;;33.20;17.80;;;;;;;7.28;100.00;96406.72;1027571;28;20541;-72
2024/03/19 00:51:23;;;;;;;37.17;18.80;;;;;;;7.27;100.00;96402.50;1027182;28;20105;-69
2024/03/19 00:51:53;;;;;;;32.78;17.30;;;;;;;7.22;100.00;96397.97;1023570;28;20035;-72
2024/03/19 00:52:25;;;;;;;36.35;18.20;;;;;;;7.19;100.00;96398.41;1027468;28;20038;-70
2024/03/19 00:52:56;;;;;;;35.05;19.00;;;;;;;7.25;100.00;96407.97;1023297;29;20086;-70
2024/03/19 00:53:26;;;;;;;38.28;18.42;;;;;;;7.26;100.00;96404.31;1019733;29;20055;-71
2024/03/19 00:53:57;;;;;;;38.78;19.10;;;;;;;7.23;100.00;96396.13;1024055;28;20103;-69
2024/03/19 00:54:27;;;;;;;36.30;18.13;;;;;;;7.28;100.00;96404.91;1027434;28;20443;-70
2024/03/19 00:54:58;;;;;;;34.42;17.40;;;;;;;7.26;100.00;96401.72;1031706;28;20026;-69
2024/03/19 00:55:28;;;;;;;40.92;17.67;;;;;;;7.24;100.00;96408.97;1034609;28;20022;-68
2024/03/19 00:55:59;;;;;;;36.88;18.48;;;;;;;7.25;100.00;96401.94;1035519;28;20029;-70
2024/03/19 00:56:29;;;;;;;33.08;17.77;;;;;;;7.25;100.00;96401.94;1038495;28;20107;-70
2024/03/19 00:57:00;;;;;;;38.55;17.95;;;;;;;7.25;100.00;96407.97;1039496;28;20052;-71
2024/03/19 00:57:32;;;;;;;38.95;18.85;;;;;;;7.29;100.00;96403.06;1035599;28;20053;-72
2024/03/19 00:58:02;;;;;;;37.95;19.02;;;;;;;7.27;100.00;96403.28;1027294;28;20050;-72
2024/03/19 00:58:33;;;;;;;33.15;17.27;;;;;;;7.29;100.00;96403.88;1027938;28;20027;-72
2024/03/19 00:59:03;;;;;;;34.72;18.17;;;;;;;7.23;100.00;96396.13;1027844;28;20022;-70
2024/03/19 00:59:33;;;;;;;37.63;17.58;;;;;;;7.27;100.00;96403.28;1027501;28;20507;-69
2024/03/19 01:00:10;;;;;;;31.83;17.60;;;;;;;7.29;100.00;96397.84;1031396;28;20454;-70
2024/03/19 01:00:41;;;;;;;33.83;18.27;;;;;;;7.29;100.00;96400.47;1027792;28;20030;-70
2024/03/19 01:01:13;;;;;;;37.72;19.10;;;;;;;7.22;100.00;96397.97;1031460;28;20026;-70
2024/03/19 01:01:45;;;;;;;31.77;17.73;;;;;;;7.28;100.00;96397.06;1031410;28;20030;-69
2024/03/19 01:02:16;;;;;;;37.90;18.08;;;;;;;7.24;100.00;96390.72;1030959;28;20487;-70
2024/03/19 01:02:47;;;;;;;37.58;18.55;;;;;;;7.26;100.00;96404.31;1023524;29;20023;-69
2024/03/19 01:03:20;;;;;;;33.55;17.90;;;;;;;7.25;100.00;96401.94;1023939;28;20031;-71
2024/03/19 01:03:51;;;;;;;35.30;17.48;;;;;;;7.26;100.00;96401.72;1024563;28;20019;-71
2024/03/19 01:04:23;;;;;;;37.67;18.73;;;;;;;7.24;100.00;96406.38;1031499;28;20041;-71
2024/03/19 01:04:53;;;;;;;34.35;17.63;;;;;;;7.26;100.00;96401.72;1032121;28;20127;-72
2024/03/19 01:05:25;;;;;;;38.90;18.00;;;;;;;7.27;100.00;96400.69;1035992;28;20074;-72
2024/03/19 01:05:55;;;;;;;36.38;18.25;;;;;;;7.20;100.00;96394.78;1035252;28;20057;-70
2024/03/19 01:06:25;;;;;;;35.08;18.02;;;;;;;7.22;100.00;96400.56;1031172;28;20102;-70
2024/03/19 01:06:56;;;;;;;35.25;17.77;;;;;;;7.20;100.00;96394.78;1031428;28;20042;-69
2024/03/19 01:07:26;;;;;;;34.30;17.17;;;;;;;7.19;100.00;96398.41;1027267;28;20031;-70
2024/03/19 01:07:57;;;;;;;36.95;17.98;;;;;;;7.18;100.00;96402.03;1027361;28;20034;-70
2024/03/19 01:08:27;;;;;;;37.30;18.17;;;;;;;7.22;100.00;96399.78;1026845;28;20039;-71
2024/03/19 01:08:58;;;;;;;35.42;17.08;;;;;;;7.22;100.00;96397.16;1027228;28;20031;-70
2024/03/19 01:09:28;;;;;;;37.95;19.13;;;;;;;7.23;100.00;96399.53;1033381;28;20023;-71
2024/03/19 01:09:59;;;;;;;34.83;17.45;;;;;;;7.22;100.00;96397.97;1035495;28;20056;-69
2024/03/19 01:10:29;;;;;;;35.17;18.55;;;;;;;7.23;100.00;96396.94;1031024;28;20030;-70
2024/03/19 01:11:01;;;;;;;35.40;17.30;;;;;;;7.19;100.00;96387.19;1028067;28;20038;-70
2024/03/19 01:11:32;;;;;;;35.08;18.08;;;;;;;7.18;100.00;96389.00;1029234;28;20114;-70
2024/03/19 01:12:03;;;;;;;37.22;17.55;;;;;;;7.17;100.00;96395.22;1031922;28;20026;-70
2024/03/19 01:12:37;;;;;;;32.25;17.08;;;;;;;7.18;100.00;96391.59;1032162;28;20033;-70
2024/03/19 01:13:07;;;;;;;31.88;16.83;;;;;;;7.20;100.00;96400.00;1028659;28;20023;-70
2024/03/19 01:13:38;;;;;;;34.47;18.25;;;;;;;7.21;100.00;96396.38;1031960;28;20074;-70
2024/03/19 01:14:10;;;;;;;36.97;18.13;;;;;;;7.20;100.00;96394.78;1027456;28;20027;-70
2024/03/19 01:14:40;;;;;;;33.55;17.23;;;;;;;7.16;100.00;96393.63;1030755;28;20032;-71
2024/03/19 01:15:11;;;;;;;37.83;17.33;;;;;;;7.13;100.00;96394.06;1031795;28;20030;-70
2024/03/19 01:15:42;;;;;;;32.05;16.98;;;;;;;7.19;100.00;96392.41;1030910;28;20034;-72
2024/03/19 01:16:12;;;;;;;33.25;16.85;;;;;;;7.19;100.00;96392.41;1034682;28;20100;-72
2024/03/19 01:16:42;;;;;;;34.67;17.65;;;;;;;7.18;100.00;96399.44;1035318;28;20140;-71
2024/03/19 01:17:13;;;;;;;34.47;17.35;;;;;;;7.19;100.00;96389.78;1035301;28;20022;-72
2024/03/19 01:17:44;;;;;;;33.13;16.73;;;;;;;7.20;100.00;96394.78;1031486;28;20084;-71
2024/03/19 01:18:14;;;;;;;37.05;18.02;;;;;;;7.17;100.00;96390.00;1034726;28;20037;-71
2024/03/19 01:18:45;;;;;;;34.55;17.45;;;;;;;7.18;100.00;96394.22;1030592;28;20031;-72
2024/03/19 01:19:15;;;;;;;33.45;16.70;;;;;;;7.16;100.00;96390.22;1027263;28;20049;-71
2024/03/19 01:19:46;;;;;;;35.88;17.67;;;;;;;7.18;100.00;96398.63;1023176;29;20031;-72
2024/03/19 01:20:17;;;;;;;32.10;17.13;;;;;;;7.13;100.00;96388.06;1023288;28;20386;-71
2024/03/19 01:20:48;;;;;;;34.03;16.83;;;;;;;7.16;100.00;96396.25;1030410;28;20081;-71
2024/03/19 01:21:18;;;;;;;35.42;17.63;;;;;;;7.17;100.00;96394.41;1038996;28;20021;-71
2024/03/19 01:21:49;;;;;;;38.25;17.58;;;;;;;7.18;100.00;96385.59;1029722;28;20037;-71
2024/03/19 01:22:19;;;;;;;34.78;16.63;;;;;;;7.17;100.00;96390.00;1028480;28;20034;-71
2024/03/19 01:22:50;;;;;;;34.08;18.63;;;;;;;7.17;100.00;96395.22;1025037;28;20548;-71
2024/03/19 01:23:20;;;;;;;43.13;18.95;;;;;;;7.16;100.00;96382.41;1027330;28;20039;-71
2024/03/19 01:23:51;;;;;;;35.17;17.75;;;;;;;7.21;100.00;96396.38;1027352;28;20035;-71
2024/03/19 01:24:21;;;;;;;35.40;16.83;;;;;;;7.21;100.00;96399.00;1030157;28;20034;-71
2024/03/19 01:24:52;;;;;;;31.67;16.58;;;;;;;7.17;100.00;96387.38;1023329;29;20027;-72
2024/03/19 01:25:22;;;;;;;36.08;18.10;;;;;;;7.20;100.00;96393.97;1024112;28;20114;-72
2024/03/19 01:25:53;;;;;;;37.22;17.27;;;;;;;7.22;100.00;96391.94;1028431;28;21896;-71
2024/03/19 01:26:23;;;;;;;32.45;17.00;;;;;;;7.22;100.00;96397.97;1031483;28;20424;-71
2024/03/19 01:26:53;;;;;;;34.42;16.88;;;;;;;7.25;100.00;96397.50;1039315;28;20037;-71
2024/03/19 01:27:24;;;;;;;35.95;16.80;;;;;;;7.26;100.00;96395.69;1033573;28;20014;-71
2024/03/19 01:27:54;;;;;;;33.85;16.83;;;;;;;7.16;100.00;96388.41;1031032;28;20021;-71
2024/03/19 01:28:25;;;;;;;31.58;17.08;;;;;;;7.23;100.00;96401.34;1022622;28;20027;-72
2024/03/19 01:28:55;;;;;;;33.85;17.20;;;;;;;7.25;100.00;96396.72;1023454;28;20481;-71
2024/03/19 01:29:26;;;;;;;35.38;17.02;;;;;;;7.24;100.00;96398.53;1034976;28;20029;-72
2024/03/19 01:29:56;;;;;;;36.38;16.98;;;;;;;7.22;100.00;96395.34;1031227;28;20025;-72
2024/03/19 01:30:27;;;;;;;38.25;18.40;;;;;;;7.21;100.00;96399.00;1035273;28;20022;-71
2024/03/19 01:30:57;;;;;;;34.78;16.55;;;;;;;7.21;100.00;96400.78;1027071;28;20049;-71
2024/03/19 01:31:29;;;;;;;37.05;17.65;;;;;;;7.23;100.00;96404.75;1031417;28;20028;-72
2024/03/19 01:31:59;;;;;;;36.10;17.17;;;;;;;7.23;100.00;96399.53;1035366;28;20560;-72
2024/03/19 01:32:29;;;;;;;33.78;16.45;;;;;;;7.26;100.00;96400.91;1031648;28;20077;-71
2024/03/19 01:33:00;;;;;;;37.05;17.13;;;;;;;7.24;100.00;96395.94;1035253;28;20033;-71
2024/03/19 01:33:30;;;;;;;36.97;17.05;;;;;;;7.22;100.00;96397.97;1031245;28;20495;-72
2024/03/19 01:34:01;;;;;;;34.03;18.10;;;;;;;7.23;100.00;96394.31;1023361;28;20389;-72
2024/03/19 01:34:31;;;;;;;30.92;17.23;;;;;;;7.24;100.00;96395.09;1027255;28;20027;-71
2024/03/19 01:35:02;;;;;;;38.90;17.13;;;;;;;7.20;100.00;96388.75;1034507;28;20062;-72
2024/03/19 01:35:32;;;;;;;34.92;16.55;;;;;;;7.17;100.00;96384.78;1031513;28;20038;-72
2024/03/19 01:36:03;;;;;;;32.95;17.30;;;;;;;7.24;100.00;96393.31;1031117;28;20018;-71
2024/03/19 01:36:33;;;;;;;34.20;17.45;;;;;;;7.23;100.00;96398.75;1031403;28;20089;-71
2024/03/19 01:37:04;;;;;;;37.00;17.77;;;;;;;7.26;100.00;96391.25;1031653;28;20033;-71
2024/03/19 01:37:35;;;;;;;37.45;17.98;;;;;;;7.23;100.00;96394.31;1031011;28;20057;-71
2024/03/19 01:38:06;;;;;;;34.28;16.40;;;;;;;7.25;100.00;96392.28;1034818;28;20561;-70
2024/03/19 01:38:37;;;;;;;35.05;17.83;;;;;;;7.26;100.00;96393.88;1031185;28;20034;-72
2024/03/19 01:39:09;;;;;;;36.83;17.75;;;;;;;7.24;100.00;96390.72;1027461;28;20034;-72
2024/03/19 01:39:40;;;;;;;33.80;16.65;;;;;;;7.22;100.00;96384.91;1034568;28;20034;-72
2024/03/19 01:40:11;;;;;;;36.65;17.30;;;;;;;7.22;100.00;96384.13;1027741;28;20014;-72
2024/03/19 01:40:46;;;;;;;38.97;16.73;;;;;;;7.25;100.00;96397.50;1027104;28;20046;-72
2024/03/19 01:41:17;;;;;;;35.60;15.70;;;;;;;7.21;100.00;96393.78;1023143;28;20072;-71
2024/03/19 01:41:53;;;;;;;34.63;16.70;;;;;;;7.23;100.00;96389.09;1031764;28;20426;-72
2024/03/19 01:42:25;;;;;;;37.30;17.33;;;;;;;7.22;100.00;96386.72;1035523;28;20033;-72
2024/03/19 01:42:55;;;;;;;37.30;16.23;;;;;;;7.19;100.00;96376.72;1037281;28;20105;-71
2024/03/19 01:43:25;;;;;;;33.03;15.50;;;;;;;7.27;100.00;96387.63;1034202;28;20034;-73
2024/03/19 01:43:56;;;;;;;35.72;17.23;;;;;;;7.25;100.00;96386.28;1027318;28;20045;-71
2024/03/19 01:44:26;;;;;;;34.45;17.08;;;;;;;7.20;100.00;96376.50;1024571;28;20075;-72
2024/03/19 01:45:12;;;;;;;33.17;16.23;;;;;;;7.24;100.00;96388.09;1027220;28;20042;-72
2024/03/19 01:45:43;;;;;;;35.35;16.50;;;;;;;7.26;100.00;96388.66;1029166;28;20030;-71
2024/03/19 01:46:15;;;;;;;38.25;16.88;;;;;;;7.25;100.00;96386.28;1033305;28;20054;-71
2024/03/19 01:46:45;;;;;;;33.88;16.02;;;;;;;7.26;100.00;96386.03;1036216;28;20018;-71
2024/03/19 01:47:17;;;;;;;34.58;16.25;;;;;;;7.23;100.00;96386.50;1035196;28;20026;-72
2024/03/19 01:47:47;;;;;;;33.58;16.55;;;;;;;7.25;100.00;96379.25;1035137;28;20033;-72
2024/03/19 01:48:18;;;;;;;39.47;17.17;;;;;;;7.23;100.00;96386.50;1034858;28;20430;-72
2024/03/19 01:48:48;;;;;;;35.92;16.52;;;;;;;7.21;100.00;96385.94;1039276;28;20022;-71
2024/03/19 01:49:19;;;;;;;36.53;17.48;;;;;;;7.21;100.00;96383.34;1039478;28;20025;-72
2024/03/19 01:49:49;;;;;;;36.75;16.20;;;;;;;7.20;100.00;96384.31;1030874;28;20030;-72
2024/03/19 01:50:19;;;;;;;33.05;16.20;;;;;;;7.20;100.00;96389.53;1031260;28;20039;-72
2024/03/19 01:50:50;;;;;;;34.95;16.20;;;;;;;7.19;100.00;96382.75;1027350;28;20041;-72
2024/03/19 01:51:21;;;;;;;39.97;17.05;;;;;;;7.20;100.00;96384.31;1035109;28;20660;-72
2024/03/19 01:51:51;;;;;;;31.13;15.43;;;;;;;7.22;100.00;96382.28;1027350;28;20507;-72
2024/03/19 01:52:22;;;;;;;34.50;15.93;;;;;;;7.24;100.00;96382.88;1031099;28;20057;-72
2024/03/19 01:52:53;;;;;;;32.53;16.45;;;;;;;7.26;100.00;96378.22;1030834;28;20029;-72
2024/03/19 01:53:23;;;;;;;31.85;15.65;;;;;;;7.24;100.00;96385.50;1023486;28;20042;-72
2024/03/19 01:53:55;;;;;;;35.20;16.95;;;;;;;7.25;100.00;96381.06;1023216;28;20023;-73
2024/03/19 01:54:25;;;;;;;35.78;15.10;;;;;;;7.27;100.00;96385.00;1023157;29;20528;-72
2024/03/19 01:54:56;;;;;;;33.17;16.00;;;;;;;7.30;100.00;96383.78;1027445;28;20057;-71
2024/03/19 01:55:26;;;;;;;33.58;16.75;;;;;;;7.24;100.00;96382.88;1031437;28;20475;-71
2024/03/19 01:55:57;;;;;;;35.00;15.85;;;;;;;7.27;100.00;96385.00;1027247;28;20019;-71
2024/03/19 01:56:27;;;;;;;36.10;15.73;;;;;;;7.20;100.00;96373.09;1026193;28;20030;-71
2024/03/19 01:56:58;;;;;;;32.58;16.17;;;;;;;7.25;100.00;96389.69;1024572;28;20030;-73
2024/03/19 01:57:28;;;;;;;36.58;16.17;;;;;;;7.28;100.00;96385.84;1023373;28;20031;-73
2024/03/19 01:57:59;;;;;;;32.15;16.27;;;;;;;7.26;100.00;96383.44;1027024;28;20029;-72
2024/03/19 01:58:29;;;;;;;31.67;15.82;;;;;;;7.29;100.00;96392.63;1026316;28;20033;-71
2024/03/19 01:59:00;;;;;;;34.75;15.18;;;;;;;7.33;100.00;96386.72;1015435;29;20414;-71
2024/03/19 01:59:30;;;;;;;33.00;16.13;;;;;;;7.37;100.00;96399.34;1021395;28;20043;-71
2024/03/19 02:00:01;;;;;;;31.38;15.55;;;;;;;7.38;100.00;96398.31;1019327;29;20038;-72
2024/03/19 02:00:31;;;;;;;31.33;15.98;;;;;;;7.41;100.00;96395.25;1028244;28;20575;-71
2024/03/19 02:01:02;;;;;;;35.05;15.63;;;;;;;7.38;100.00;96398.31;1023256;29;20642;-71
2024/03/19 02:01:34;;;;;;;31.63;15.60;;;;;;;7.40;100.00;96393.66;1023327;28;20507;-72
2024/03/19 02:02:04;;;;;;;31.55;15.00;;;;;;;7.37;100.00;96394.13;1025884;28;20043;-71
2024/03/19 02:02:35;;;;;;;34.58;15.95;;;;;;;7.35;100.00;96391.75;1026945;28;20035;-71
2024/03/19 02:03:06;;;;;;;34.55;15.57;;;;;;;7.35;100.00;96393.56;1023392;29;20027;-72
2024/03/19 02:03:37;;;;;;;31.95;15.48;;;;;;;7.36;100.00;96393.31;1023093;29;20051;-71
2024/03/19 02:04:07;;;;;;;34.10;15.25;;;;;;;7.40;100.00;96388.44;1023898;28;20097;-71
2024/03/19 02:04:39;;;;;;;35.97;15.65;;;;;;;7.36;100.00;96389.91;1030836;28;20613;-71
2024/03/19 02:05:12;;;;;;;34.03;15.07;;;;;;;7.33;100.00;96385.94;1031431;28;20104;-73
2024/03/19 02:05:46;;;;;;;32.17;15.23;;;;;;;7.35;100.00;96381.28;1030959;28;20026;-72
2024/03/19 02:06:16;;;;;;;36.80;16.40;;;;;;;7.35;100.00;96391.75;1026868;28;20031;-72
2024/03/19 02:06:47;;;;;;;30.60;14.77;;;;;;;7.29;100.00;96387.41;1024247;28;20035;-72
2024/03/19 02:07:17;;;;;;;31.73;14.77;;;;;;;7.28;100.00;96391.84;1031951;28;20034;-73
2024/03/19 02:07:48;;;;;;;36.83;16.15;;;;;;;7.26;100.00;96393.88;1030952;28;20059;-71
2024/03/19 02:08:18;;;;;;;35.90;15.77;;;;;;;7.28;100.00;96396.28;1030677;28;20034;-71
2024/03/19 02:09:14;;;;;;;31.40;15.82;;;;;;;7.31;100.00;96395.81;1030983;28;20049;-72
2024/03/19 02:09:44;;;;;;;32.17;15.38;;;;;;;7.29;100.00;96396.03;1038168;28;20041;-71
2024/03/19 02:10:14;;;;;;;30.45;14.82;;;;;;;7.30;100.00;96400.22;1039611;28;20036;-72
2024/03/19 02:10:47;;;;;;;34.55;16.45;;;;;;;7.25;100.00;96397.50;1030839;28;20101;-72
2024/03/19 02:11:20;;;;;;;34.13;15.23;;;;;;;7.30;100.00;96394.22;1027097;28;20044;-72
2024/03/19 02:11:51;;;;;;;34.33;16.17;;;;;;;7.27;100.00;96397.28;1022965;29;20030;-72
2024/03/19 02:12:24;;;;;;;31.98;14.93;;;;;;;7.30;100.00;96394.22;1027116;28;20026;-72
2024/03/19 02:12:55;;;;;;;32.35;15.27;;;;;;;7.32;100.00;96403.41;1030991;28;20053;-72
2024/03/19 02:13:25;;;;;;;31.55;14.77;;;;;;;7.26;100.00;96386.03;1022994;29;20070;-72
2024/03/19 02:13:56;;;;;;;32.03;14.50;;;;;;;7.33;100.00;96399.00;1024990;28;20031;-71
2024/03/19 02:14:27;;;;;;;35.40;15.18;;;;;;;7.19;100.00;96377.53;1019173;29;20050;-72
2024/03/19 02:14:57;;;;;;;34.67;16.40;;;;;;;7.26;100.00;96386.03;1024292;28;20031;-71
2024/03/19 02:15:27;;;;;;;29.13;15.20;;;;;;;7.32;100.00;96398.19;1031097;28;20042;-72
2024/03/19 02:15:58;;;;;;;30.77;14.90;;;;;;;7.37;100.00;96397.50;1027241;28;20027;-71
2024/03/19 02:16:28;;;;;;;35.17;15.10;;;;;;;7.37;100.00;96396.72;1027047;28;20439;-71
2024/03/19 02:16:59;;;;;;;34.60;15.75;;;;;;;7.27;100.00;96387.63;1022917;28;20125;-72
2024/03/19 02:17:29;;;;;;;33.20;15.45;;;;;;;7.32;100.00;96392.97;1022386;29;20139;-71
2024/03/19 02:18:00;;;;;;;32.35;15.45;;;;;;;7.30;100.00;96392.41;1027163;28;20034;-71
2024/03/19 02:18:30;;;;;;;32.03;15.27;;;;;;;7.35;100.00;96396.16;1026357;28;20034;-72
2024/03/19 02:19:03;;;;;;;30.27;15.73;;;;;;;7.31;100.00;96382.78;1022728;28;20384;-71
2024/03/19 02:19:34;;;;;;;34.63;16.10;;;;;;;7.35;100.00;96393.56;1029859;28;20034;-71
2024/03/19 02:20:12;;;;;;;32.05;14.55;;;;;;;7.38;100.00;96395.69;1031824;28;20506;-71
2024/03/19 02:20:43;;;;;;;26.88;14.32;;;;;;;7.37;100.00;96391.50;1040265;28;20106;-72
2024/03/19 02:21:13;;;;;;;35.53;15.55;;;;;;;7.29;100.00;96383.00;1037757;28;20479;-72
2024/03/19 02:21:44;;;;;;;34.08;15.60;;;;;;;7.36;100.00;96400.38;1034168;28;20022;-71
2024/03/19 02:22:15;;;;;;;34.55;15.02;;;;;;;7.39;100.00;96390.25;1034582;28;20513;-70